Vancouver, British Columbia

3:56 AM PDT on September 15, 2014 (GMT -0700)
Vancouver | Change Station
CLOSE
Current Station
Airport
Location: Vancouver,
Elevation: 13 ft
Nearby Weather Stations

Elev 13 ft 49.18 °N, 123.17 °W | Updated 56 minutes ago

Clear
Clear
55 °F
Feels Like 55 °F
N
2
Wind Variable Wind from Variable

Today
High -- | Low -- °F
--% Chance of Precip.
Yesterday
High -- | Low -- °F
Precip. -- in
6:49 AM 7:25 PM
Waning Gibbous, 56% visible
Pressure 29.88 in
Visibility 15.0 miles
Clouds Clear
Dew Point 48 °F
Humidity 77%
Rainfall 0.00 in
Snow Depth Not available.
UV 0 out of 12
Pollen Not available.
Air Quality Not available.
Flu Activity Not available.
METAR CYVR 151000Z VRB02KT 15SM SKC 13/09 A2988 RMK SLP119

More Conditions Fewer Conditions

Pressure 29.88 in
Visibility 15.0 miles
Clouds Clear
Dew Point 48 °F
Humidity 77%
Rainfall 0.00 in
Snow Depth Not available.
UV 0 out of 12
Pollen Not available.
Air Quality Not available.
Flu Activity Not available.
METAR CYVR 151000Z VRB02KT 15SM SKC 13/09 A2988 RMK SLP119

More Conditions Fewer Conditions

10-Day Weather Forecast

Almanac

Astronomy

Sep. 15, 2014 Rise Set
Actual Time 6:49 AM PDT 7:25 PM PDT
Civil Twilight 6:17 AM PDT 7:57 PM PDT
Nautical Twilight 5:39 AM PDT 8:35 PM PDT
Astronomical Twilight 4:59 AM PDT 9:15 PM PDT
Moon 11:42 PM PDT 2:25 PM PDT
Length of Visible Light 13h 40m
Length of Day
12h 36m
Tomorrow will be 3m 36s shorter.
Waning Gibbous, 56% of the Moon is Illuminated
Today
Waning Gibbous
Sep 15
Last Quarter
Sep 24
New
Oct 1
First Quarter
Oct 8
Full

Yesterday's Extremes

Country Highs Country Lows

Community

WunderPhotos

Upload Photos

1,753,428 photos uploaded!

Nearby

Snow Depth

Not available.

Earthquake Activity

City Distance Mag. Time & Date
No recent earthquake activity has been reported nearby.
Minimum magnitude displayed is 2.5.

Coastal Water Temperatures

Place Temperature
No Stations Reporting

Nearby Weather Stations